Terminal Aerodrome Forecast
Issued by NWS Wilmington, OH

Current Version | Previous Version | Graphics & Text | Print | Product List | Glossary On
Versions: 1 2 3 4 5 6 7 8 9 10 11 12 13 14 15 16 17 18 19 20 21
837
FTUS41 KILN 091908 AAA
TAFCMH
TAF AMD
KCMH 091908Z 0919/1018 26012KT P6SM -SHSN OVC025
     FM092300 27006KT P6SM OVC040
     FM100800 26005KT P6SM SCT035 BKN120
     FM101400 25008KT P6SM BKN080=

USA.gov is the U.S. government's official web portal to all federal, state and local government web resources and services.